This is the latest recevied weather packets stored in our database for station/object HS1AXC-1. If no packets are shown the sender has not sent any weather packets the latest 10 day(s).
| Time | Temp. | Humidity | Pressure | Rain* | Wind** | Luminosity | Snow |
|---|---|---|---|---|---|---|---|
| 1777919945 | 30° C | 89% | 1011 hPa | - | - | 0 W/m² | - |
| 1777919323 | 28.89° C | 96% | 1011 hPa | - | - | 0 W/m² | - |
| 1777918951 | 30° C | 90% | 1011 hPa | - | - | 0 W/m² | - |
| 1777918391 | 29.44° C | 91% | 1011 hPa | - | - | 0 W/m² | - |
| 1777917769 | 29.44° C | 95% | 1011 hPa | - | - | 0 W/m² | - |
| 1777917343 | 30.56° C | 87% | 1011 hPa | - | - | 0 W/m² | - |
| 1777916721 | 30.56° C | 87% | 1012 hPa | - | - | 0 W/m² | - |
| 1777916099 | 30.56° C | 89% | 1012 hPa | - | - | 0 W/m² | - |
| 1777915477 | 30.56° C | 87% | 1012 hPa | - | - | 0 W/m² | - |
| 1777914854 | 30° C | 87% | 1012 hPa | - | - | 0 W/m² | - |
| 1777914232 | 30.56° C | 90% | 1013 hPa | - | - | 0 W/m² | - |
| 1777913610 | 30.56° C | 89% | 1013 hPa | - | - | 0 W/m² | - |
| 1777912988 | 31.11° C | 89% | 1013 hPa | - | - | 0 W/m² | - |
| 1777912412 | 31.11° C | 95% | 1012 hPa | - | - | 0 W/m² | - |
| 1777911790 | 31.67° C | 92% | 1012 hPa | - | - | 0 W/m² | - |
| 1777911167 | 31.67° C | 94% | 1011 hPa | - | - | 0 W/m² | - |
| 1777910545 | 31.67° C | 93% | 1011 hPa | - | - | 0 W/m² | - |
| 1777909923 | 31.67° C | 90% | 1011 hPa | - | - | 0 W/m² | - |
| 1777909301 | 32.22° C | 88% | 1011 hPa | - | - | 0 W/m² | - |
| 1777908679 | 32.22° C | 87% | 1011 hPa | - | - | 0 W/m² | - |
| 1777907855 | 31.67° C | 89% | 1011 hPa | - | - | 0 W/m² | - |
| 1777907541 | 31.67° C | 92% | 1011 hPa | - | - | 0 W/m² | - |
| 1777906919 | 31.67° C | 91% | 1012 hPa | - | - | 0 W/m² | - |
| 1777906297 | 31.67° C | 93% | 1011 hPa | - | - | 0 W/m² | - |
| 1777905674 | 31.67° C | 90% | 1011 hPa | - | - | 0 W/m² | - |
* Rain since midnight (hover to see other rain measurements)
** Current wind speed in m/s (hover to see current wind gust speed)